Time;durP1;ratioP1;P1;durP2;ratioP2;P2;SDS_P1;SDS_P2;PMS_P1;PMS_P2;Temp;Humidity;BMP_temperature;BMP_pressure;BME280_temperature;BME280_humidity;BME280_pressure;Samples;Min_cycle;Max_cycle;Signal;HPM_P1;HPM_P2
2022/04/26 03:37:17;;;;;;;20.40;5.47;;;6.10;99.90;;;;;;5027543;28;20045;-34
2022/04/26 03:39:43;;;;;;;12.80;5.30;;;6.10;99.90;;;;;;5042422;28;20069;-34
2022/04/26 03:42:10;;;;;;;13.90;4.70;;;6.10;99.90;;;;;;5042923;28;20361;-34
2022/04/26 03:44:35;;;;;;;19.20;5.87;;;6.10;99.90;;;;;;5043438;28;20098;-34
2022/04/26 03:47:01;;;;;;;11.63;4.30;;;6.00;99.90;;;;;;5029006;28;20049;-34
2022/04/26 03:49:27;;;;;;;15.87;5.03;;;6.10;99.90;;;;;;5043720;28;20637;-34
2022/04/26 03:51:53;;;;;;;14.63;5.13;;;6.10;99.90;;;;;;5044585;28;20151;-34
2022/04/26 03:54:22;;;;;;;20.20;4.90;;;6.10;99.90;;;;;;5046900;28;20044;-34
2022/04/26 03:56:48;;;;;;;13.10;4.97;;;6.10;99.90;;;;;;5032772;28;20041;-34
2022/04/26 03:59:14;;;;;;;17.40;4.97;;;6.10;99.90;;;;;;5047306;28;20484;-34
2022/04/26 04:01:40;;;;;;;12.07;4.50;;;6.10;99.90;;;;;;5047575;28;20048;-34
2022/04/26 04:04:06;;;;;;;16.67;5.20;;;6.10;99.90;;;;;;5030598;28;20045;-34
2022/04/26 04:06:32;;;;;;;18.10;4.53;;;6.10;99.90;;;;;;5033561;28;20569;-35
2022/04/26 04:08:58;;;;;;;13.27;5.23;;;6.00;99.90;;;;;;5044463;28;20558;-34
2022/04/26 04:11:24;;;;;;;14.63;5.13;;;6.00;99.90;;;;;;5047385;28;20086;-34
2022/04/26 04:13:50;;;;;;;14.70;5.30;;;6.10;99.90;;;;;;5046817;28;20161;-34
2022/04/26 04:16:15;;;;;;;16.30;4.57;;;6.00;99.90;;;;;;5036476;28;20089;-35
2022/04/26 04:21:25;;;;;;;19.03;5.97;;;6.00;99.90;;;;;;5045575;28;20056;-34
2022/04/26 04:23:51;;;;;;;17.47;5.20;;;6.00;99.90;;;;;;5060041;28;20091;-34
2022/04/26 04:26:17;;;;;;;11.97;5.17;;;5.90;99.90;;;;;;5033688;28;20063;-35
2022/04/26 04:28:43;;;;;;;15.60;5.40;;;5.90;99.90;;;;;;5042026;28;20086;-34
2022/04/26 04:31:10;;;;;;;13.23;5.13;;;6.00;99.90;;;;;;5044576;28;20351;-34
2022/04/26 04:33:36;;;;;;;10.60;5.37;;;6.00;99.90;;;;;;5046219;28;20498;-34
2022/04/26 04:36:03;;;;;;;11.97;5.27;;;6.00;99.90;;;;;;5046641;28;20041;-34
2022/04/26 04:38:29;;;;;;;13.60;5.20;;;6.00;99.90;;;;;;5030059;28;20029;-34
2022/04/26 04:40:54;;;;;;;12.27;5.53;;;6.10;99.90;;;;;;5061504;28;20052;-34
2022/04/26 04:43:20;;;;;;;13.53;6.07;;;6.10;99.90;;;;;;5046151;28;20080;-34
2022/04/26 04:45:47;;;;;;;16.40;5.97;;;6.10;99.90;;;;;;5043505;28;20048;-34
2022/04/26 04:48:13;;;;;;;14.97;5.73;;;6.10;99.90;;;;;;5030446;28;20076;-34
2022/04/26 04:50:38;;;;;;;14.07;5.87;;;6.10;99.90;;;;;;5044494;28;20107;-34
2022/04/26 04:53:04;;;;;;;18.23;6.40;;;6.20;99.90;;;;;;5045777;28;20044;-34
2022/04/26 04:55:31;;;;;;;18.37;6.77;;;6.20;99.90;;;;;;5046083;28;20615;-34
2022/04/26 04:57:57;;;;;;;14.43;6.10;;;6.20;99.90;;;;;;5030045;28;20128;-34
2022/04/26 05:00:22;;;;;;;16.67;5.90;;;6.30;99.90;;;;;;5046350;28;20051;-34
2022/04/26 05:02:48;;;;;;;16.97;6.23;;;6.30;99.90;;;;;;5060073;28;20044;-34
2022/04/26 05:05:14;;;;;;;16.43;6.37;;;6.30;99.90;;;;;;5045789;28;20154;-34
2022/04/26 05:07:40;;;;;;;18.07;6.17;;;6.50;99.90;;;;;;5045512;28;20040;-34
2022/04/26 05:10:07;;;;;;;14.67;6.03;;;6.40;99.90;;;;;;5046172;28;20476;-34
2022/04/26 05:12:34;;;;;;;15.63;5.90;;;6.40;99.90;;;;;;5057900;28;20049;-34
2022/04/26 05:15:01;;;;;;;13.23;5.50;;;6.50;99.90;;;;;;5045212;28;20515;-34
2022/04/26 05:17:27;;;;;;;13.73;6.03;;;6.50;99.90;;;;;;5026385;28;20297;-36
2022/04/26 05:19:53;;;;;;;14.10;5.83;;;6.60;99.90;;;;;;5043821;28;20043;-35
2022/04/26 05:22:19;;;;;;;16.47;5.90;;;6.60;99.90;;;;;;5043863;28;20137;-35
2022/04/26 05:24:54;;;;;;;12.57;5.57;;;6.70;99.90;;;;;;5043495;28;20143;-35
2022/04/26 05:27:21;;;;;;;13.93;5.37;;;6.80;99.90;;;;;;5028972;28;20056;-34
2022/04/26 05:29:46;;;;;;;13.17;5.57;;;6.90;99.90;;;;;;5044656;28;20048;-34
2022/04/26 05:32:12;;;;;;;13.97;5.67;;;6.90;99.90;;;;;;5042140;28;20044;-34
2022/04/26 05:34:38;;;;;;;15.80;5.17;;;7.00;99.90;;;;;;5045127;28;20033;-34
2022/04/26 05:37:04;;;;;;;14.60;4.83;;;7.10;99.90;;;;;;5028819;28;20049;-35
2022/04/26 05:39:29;;;;;;;13.57;4.57;;;7.20;99.90;;;;;;5044676;28;20040;-35
2022/04/26 05:41:55;;;;;;;16.40;5.07;;;7.30;99.90;;;;;;5042759;28;20377;-34
2022/04/26 05:44:20;;;;;;;11.53;4.50;;;7.40;99.90;;;;;;5043317;28;20409;-35
2022/04/26 05:46:46;;;;;;;11.53;4.33;;;7.50;99.90;;;;;;5026941;28;20037;-35
2022/04/26 05:49:12;;;;;;;10.33;4.10;;;7.50;99.90;;;;;;5043040;28;20045;-34
2022/04/26 05:51:37;;;;;;;10.20;3.80;;;7.60;99.90;;;;;;5044761;28;20472;-35
2022/04/26 05:54:03;;;;;;;14.33;4.20;;;7.60;99.90;;;;;;5043736;28;20131;-35
2022/04/26 05:56:29;;;;;;;14.83;4.67;;;7.80;99.90;;;;;;5032775;28;20072;-34
2022/04/26 05:58:54;;;;;;;9.43;4.47;;;7.90;99.90;;;;;;5039339;28;20128;-35
2022/04/26 06:01:20;;;;;;;13.23;4.43;;;8.00;99.90;;;;;;5044564;28;20368;-35
2022/04/26 06:03:46;;;;;;;10.47;4.13;;;8.10;99.90;;;;;;5043403;28;20055;-35
2022/04/26 06:06:11;;;;;;;14.10;4.07;;;8.20;99.90;;;;;;5035333;28;20044;-35
2022/04/26 06:08:37;;;;;;;11.03;4.10;;;8.30;99.90;;;;;;5001080;28;20049;-35
2022/04/26 06:11:03;;;;;;;10.03;4.50;;;8.40;99.90;;;;;;5042683;28;20504;-34
2022/04/26 06:13:28;;;;;;;15.33;4.40;;;8.50;99.90;;;;;;5039316;28;20052;-35
2022/04/26 06:15:55;;;;;;;10.07;4.50;;;8.60;99.90;;;;;;5040757;28;20107;-35
2022/04/26 06:18:20;;;;;;;12.10;4.47;;;8.70;99.90;;;;;;5026143;28;20056;-34
2022/04/26 06:20:46;;;;;;;11.70;3.87;;;8.80;99.90;;;;;;5042301;28;20041;-34
2022/04/26 06:23:12;;;;;;;10.47;3.60;;;8.90;99.90;;;;;;5041042;28;20049;-34
2022/04/26 06:25:39;;;;;;;9.73;3.90;;;8.90;99.90;;;;;;5041482;28;20059;-35
2022/04/26 06:28:06;;;;;;;11.23;3.87;;;8.90;99.90;;;;;;5026725;28;20480;-35
2022/04/26 06:30:32;;;;;;;11.83;3.80;;;9.00;99.90;;;;;;5059527;28;20064;-35
2022/04/26 06:32:58;;;;;;;10.63;4.13;;;9.00;99.90;;;;;;5043891;28;20049;-34
2022/04/26 06:35:23;;;;;;;7.00;3.40;;;9.00;99.90;;;;;;5036829;28;20045;-35
2022/04/26 06:37:49;;;;;;;14.23;4.10;;;9.00;99.90;;;;;;5028572;28;20045;-34
2022/04/26 06:40:15;;;;;;;13.73;3.93;;;9.00;99.90;;;;;;5041747;28;20527;-35
2022/04/26 06:42:40;;;;;;;13.67;4.10;;;9.10;99.90;;;;;;5020363;28;20958;-35
2022/04/26 06:45:06;;;;;;;11.43;3.90;;;9.10;99.90;;;;;;5022165;28;20045;-34
2022/04/26 06:47:32;;;;;;;10.77;4.23;;;9.10;99.90;;;;;;5005518;28;20053;-35
2022/04/26 06:49:58;;;;;;;8.60;4.30;;;9.10;99.90;;;;;;5018575;28;20169;-35
2022/04/26 06:52:24;;;;;;;10.73;4.53;;;9.10;99.90;;;;;;5019147;28;20427;-35
2022/04/26 06:54:50;;;;;;;11.30;3.97;;;9.10;99.90;;;;;;5020461;28;20049;-35
2022/04/26 06:57:16;;;;;;;9.83;4.13;;;9.20;99.90;;;;;;5000500;28;20047;-35
2022/04/26 06:59:41;;;;;;;12.10;4.23;;;9.30;99.90;;;;;;5020326;28;20748;-35
2022/04/26 07:02:07;;;;;;;13.37;4.10;;;9.30;99.90;;;;;;5017876;28;20168;-35
2022/04/26 07:04:33;;;;;;;11.53;3.43;;;9.40;99.90;;;;;;5017981;28;20333;-35
2022/04/26 07:06:59;;;;;;;10.37;3.87;;;9.40;99.90;;;;;;4999064;28;20087;-35
2022/04/26 07:09:25;;;;;;;10.33;3.93;;;9.50;99.90;;;;;;5017312;28;20463;-35
2022/04/26 07:11:51;;;;;;;9.30;3.70;;;9.50;99.90;;;;;;5019859;28;20163;-35
2022/04/26 07:14:17;;;;;;;9.07;3.43;;;9.50;99.90;;;;;;5018927;28;20090;-35
2022/04/26 07:16:48;;;;;;;10.90;4.10;;;9.50;99.90;;;;;;5004851;28;20049;-35
2022/04/26 07:19:14;;;;;;;6.53;2.33;;;9.70;99.90;;;;;;5017487;28;20480;-35
2022/04/26 07:21:44;;;;;;;10.67;3.60;;;9.60;99.90;;;;;;5017781;28;20057;-35
2022/04/26 07:24:11;;;;;;;11.50;3.33;;;9.60;99.90;;;;;;5019315;28;20156;-35
2022/04/26 07:26:36;;;;;;;13.93;4.07;;;9.60;99.90;;;;;;5008711;28;20079;-35
2022/04/26 07:29:02;;;;;;;8.67;3.47;;;9.70;99.90;;;;;;5023088;28;20044;-35
2022/04/26 07:31:30;;;;;;;7.83;3.27;;;9.70;99.90;;;;;;5023723;28;20053;-35
2022/04/26 07:34:41;;;;;;;5.83;3.10;;;9.70;99.90;;;;;;5025035;28;20300;-34
2022/04/26 07:36:41;;;;;;;8.87;3.13;;;9.90;99.90;;;;;;5005796;28;20530;-35
2022/04/26 07:39:07;;;;;;;9.50;3.03;;;9.70;99.90;;;;;;5022458;28;20040;-35
2022/04/26 07:41:33;;;;;;;9.10;3.60;;;9.70;99.90;;;;;;5023819;28;20619;-35
2022/04/26 07:43:58;;;;;;;8.30;3.00;;;9.60;99.90;;;;;;5027883;28;20170;-35
2022/04/26 07:46:24;;;;;;;10.10;3.13;;;9.70;99.90;;;;;;5010360;28;21190;-35
2022/04/26 07:48:51;;;;;;;8.97;3.03;;;9.70;99.90;;;;;;5021470;28;20413;-35
2022/04/26 07:51:18;;;;;;;6.53;2.67;;;9.70;99.90;;;;;;5022589;28;20119;-35
2022/04/26 07:53:44;;;;;;;10.03;3.40;;;9.80;99.90;;;;;;5026247;28;20373;-35
2022/04/26 07:56:10;;;;;;;6.18;2.70;;;9.80;99.90;;;;;;5016387;28;20041;-36
2022/04/26 07:58:36;;;;;;;10.03;3.20;;;9.90;99.90;;;;;;5016775;28;20057;-35
2022/04/26 08:01:02;;;;;;;7.47;3.00;;;9.90;99.90;;;;;;5026834;28;20049;-35
2022/04/26 08:03:28;;;;;;;10.40;3.27;;;9.90;99.90;;;;;;5023205;28;20052;-35
2022/04/26 08:05:53;;;;;;;6.80;2.70;;;10.00;99.90;;;;;;5024528;28;20412;-35
2022/04/26 08:08:19;;;;;;;10.97;3.10;;;9.90;99.90;;;;;;5008249;28;20044;-35
2022/04/26 08:10:45;;;;;;;9.07;3.30;;;9.90;99.90;;;;;;5026021;28;20087;-35
2022/04/26 08:13:11;;;;;;;7.10;3.20;;;9.80;99.90;;;;;;5006643;28;20040;-35
2022/04/26 08:15:39;;;;;;;6.73;2.60;;;9.90;99.90;;;;;;5022438;28;20056;-35
2022/04/26 08:18:05;;;;;;;6.57;2.70;;;10.10;99.90;;;;;;5003534;28;20790;-35
2022/04/26 08:20:32;;;;;;;8.07;2.70;;;10.00;99.90;;;;;;5003518;28;20064;-35
2022/04/26 08:22:59;;;;;;;8.57;3.10;;;10.00;99.90;;;;;;5022324;28;20074;-35
2022/04/26 08:28:09;;;;;;;7.67;2.83;;;10.10;99.90;;;;;;5007366;28;20487;-35
2022/04/26 08:30:34;;;;;;;7.73;2.67;;;10.20;99.90;;;;;;5024197;28;20041;-35
2022/04/26 08:33:00;;;;;;;10.17;3.20;;;10.20;99.90;;;;;;5020054;28;20515;-35
2022/04/26 08:35:27;;;;;;;9.07;2.83;;;10.20;99.90;;;;;;5021876;28;20056;-35
2022/04/26 08:37:53;;;;;;;7.93;3.13;;;10.30;99.90;;;;;;4987879;28;20067;-35
2022/04/26 08:40:19;;;;;;;7.40;2.73;;;10.50;99.90;;;;;;5018598;28;20045;-35
2022/04/26 08:42:46;;;;;;;8.80;2.67;;;10.30;99.90;;;;;;5019433;28;20079;-35
2022/04/26 08:45:15;;;;;;;9.27;2.67;;;10.40;99.90;;;;;;5020340;28;20550;-35
2022/04/26 08:53:11;;;;;;;8.07;2.63;;;10.50;99.90;;;;;;5018012;28;20417;-35
2022/04/26 08:55:44;;;;;;;6.70;2.80;;;10.40;99.90;;;;;;5002400;28;20040;-35
2022/04/26 08:58:12;;;;;;;7.00;2.92;;;10.40;99.90;;;;;;5003586;28;20504;-35
2022/04/26 09:01:03;;;;;;;7.55;3.40;;;10.40;99.90;;;;;;5021350;28;20053;-35
2022/04/26 09:03:57;;;;;;;10.38;2.58;;;10.40;99.90;;;;;;5016863;28;20959;-35
2022/04/26 09:06:32;;;;;;;7.60;2.90;;;10.50;99.90;;;;;;5008911;28;20055;-35
2022/04/26 09:09:14;;;;;;;5.85;2.58;;;10.50;99.90;;;;;;5016312;28;20430;-35
2022/04/26 09:11:41;;;;;;;9.32;2.72;;;10.50;99.90;;;;;;5018313;28;20438;-35
2022/04/26 09:14:33;;;;;;;8.75;2.70;;;10.60;99.90;;;;;;5018068;28;20072;-35
2022/04/26 09:17:09;;;;;;;7.95;2.70;;;10.70;99.90;;;;;;5003772;28;20079;-35
2022/04/26 09:19:49;;;;;;;7.17;2.90;;;10.70;99.90;;;;;;5015606;28;20049;-35
2022/04/26 09:22:19;;;;;;;8.90;2.90;;;10.80;99.90;;;;;;5017490;28;20333;-35
2022/04/26 09:25:00;;;;;;;5.43;2.10;;;10.80;99.90;;;;;;5002108;28;20558;-35
2022/04/26 09:27:27;;;;;;;8.52;3.05;;;10.80;99.90;;;;;;5002342;28;20048;-35
2022/04/26 09:29:52;;;;;;;7.28;3.00;;;11.00;99.90;;;;;;5016919;28;20079;-35
2022/04/26 09:32:18;;;;;;;10.90;2.80;;;10.70;99.90;;;;;;5017289;28;20498;-35
2022/04/26 09:34:44;;;;;;;9.45;2.97;;;10.90;99.90;;;;;;5017235;28;20125;-35
2022/04/26 09:37:11;;;;;;;9.43;2.92;;;11.00;99.90;;;;;;5001907;28;20165;-35
2022/04/26 09:39:39;;;;;;;5.75;2.45;;;11.00;99.90;;;;;;5014775;28;21120;-35
2022/04/26 09:42:05;;;;;;;11.63;2.72;;;11.00;99.90;;;;;;5014129;28;20564;-36
2022/04/26 09:44:33;;;;;;;6.28;2.45;;;11.10;99.90;;;;;;5017234;28;20071;-35
2022/04/26 09:46:58;;;;;;;6.68;2.45;;;11.10;99.90;;;;;;5002552;28;20049;-36
2022/04/26 09:49:26;;;;;;;6.90;2.22;;;11.10;99.90;;;;;;5013793;28;20052;-35
2022/04/26 09:51:57;;;;;;;6.28;2.53;;;11.10;99.90;;;;;;5016447;28;20040;-35
2022/04/26 09:54:23;;;;;;;9.52;2.67;;;11.20;99.90;;;;;;5018329;28;20045;-36
2022/04/26 09:56:50;;;;;;;8.85;2.50;;;11.20;99.90;;;;;;4999242;28;20083;-35
2022/04/26 09:59:29;;;;;;;6.85;2.78;;;11.30;99.90;;;;;;5013004;28;20045;-35
2022/04/26 10:01:56;;;;;;;8.30;2.72;;;11.30;99.90;;;;;;5014881;28;20329;-35
2022/04/26 10:04:25;;;;;;;8.18;2.60;;;11.30;99.90;;;;;;5015691;28;20132;-35
2022/04/26 10:06:52;;;;;;;3.60;2.20;;;11.40;99.90;;;;;;4999639;28;20052;-36
2022/04/26 10:09:19;;;;;;;5.65;2.50;;;11.50;99.90;;;;;;5015699;28;20416;-35
2022/04/26 10:11:45;;;;;;;6.15;2.28;;;11.50;99.90;;;;;;5015583;28;20041;-35
2022/04/26 10:14:12;;;;;;;8.18;2.20;;;11.50;99.90;;;;;;5017129;28;20107;-36
2022/04/26 10:16:38;;;;;;;5.50;2.60;;;11.70;99.90;;;;;;4997399;28;20358;-36
2022/04/26 10:19:09;;;;;;;5.80;2.60;;;11.60;99.90;;;;;;5016805;28;20561;-35
2022/04/26 10:21:40;;;;;;;5.40;2.38;;;11.60;99.90;;;;;;5018741;28;20052;-35
2022/04/26 10:24:23;;;;;;;4.68;2.38;;;11.60;99.90;;;;;;5014839;28;21518;-36
2022/04/26 10:26:51;;;;;;;7.57;2.30;;;11.60;99.90;;;;;;4998649;28;20068;-35
2022/04/26 10:29:22;;;;;;;4.85;2.30;;;11.60;99.90;;;;;;5013824;28;20098;-35
2022/04/26 10:31:49;;;;;;;6.78;2.53;;;11.70;99.90;;;;;;5015558;28;20045;-36
2022/04/26 10:34:16;;;;;;;8.13;2.70;;;11.70;99.90;;;;;;5017142;28;20057;-35
2022/04/26 10:36:42;;;;;;;8.70;2.35;;;11.70;99.90;;;;;;5003887;28;20453;-36
2022/04/26 10:39:15;;;;;;;6.00;2.70;;;11.80;99.90;;;;;;5013519;28;20072;-35
2022/04/26 10:41:45;;;;;;;6.68;2.60;;;11.80;99.90;;;;;;5017067;28;20123;-35
2022/04/26 10:44:15;;;;;;;5.05;2.20;;;11.90;99.90;;;;;;5015492;28;20052;-35
2022/04/26 10:46:42;;;;;;;6.68;3.15;;;11.90;99.90;;;;;;5002415;28;20823;-35
2022/04/26 10:49:29;;;;;;;6.32;2.47;;;12.00;99.90;;;;;;5016359;28;20045;-35
2022/04/26 10:51:55;;;;;;;5.80;2.60;;;12.00;99.90;;;;;;5014535;28;20075;-35
2022/04/26 10:54:46;;;;;;;4.03;2.60;;;12.00;99.90;;;;;;5011685;28;20049;-35
2022/04/26 10:57:22;;;;;;;6.63;2.55;;;12.10;99.90;;;;;;4998447;28;20186;-35
2022/04/26 10:59:51;;;;;;;8.77;2.75;;;12.10;99.90;;;;;;5015356;28;20088;-35
2022/04/26 11:02:18;;;;;;;9.15;3.15;;;12.20;99.90;;;;;;5013393;28;20447;-35
2022/04/26 11:04:45;;;;;;;6.07;2.35;;;12.20;99.90;;;;;;5015916;28;20057;-36
2022/04/26 11:07:17;;;;;;;8.95;2.67;;;12.20;99.90;;;;;;4998061;28;20036;-36
2022/04/26 11:09:50;;;;;;;6.05;2.42;;;12.20;99.90;;;;;;5015730;28;20532;-36
2022/04/26 11:12:25;;;;;;;8.40;2.63;;;12.20;99.90;;;;;;5014781;28;20060;-36
2022/04/26 11:14:53;;;;;;;9.50;2.42;;;12.30;99.90;;;;;;5014595;28;20052;-36
2022/04/26 11:17:24;;;;;;;6.28;3.25;;;12.40;99.90;;;;;;5000486;28;20053;-35
2022/04/26 11:20:02;;;;;;;7.18;2.80;;;12.40;99.90;;;;;;5014567;28;20049;-36
2022/04/26 11:22:28;;;;;;;8.35;2.42;;;12.50;99.90;;;;;;5013528;28;21594;-36
2022/04/26 11:30:42;;;;;;;5.45;2.42;;;12.60;99.90;;;;;;5018563;28;20045;-36
2022/04/26 11:33:20;;;;;;;6.03;2.35;;;12.70;99.90;;;;;;5018721;28;20052;-36
2022/04/26 11:35:52;;;;;;;5.45;2.35;;;12.70;99.90;;;;;;5020378;28;20143;-35
2022/04/26 11:38:18;;;;;;;8.10;2.38;;;12.70;99.90;;;;;;5002516;28;20095;-36
2022/04/26 11:40:51;;;;;;;6.03;2.35;;;12.70;99.90;;;;;;5019259;28;20053;-35
2022/04/26 11:43:22;;;;;;;3.28;2.40;;;12.80;99.90;;;;;;5017680;28;20144;-36
2022/04/26 11:45:53;;;;;;;6.57;2.38;;;12.80;99.90;;;;;;5017729;28;20059;-36
2022/04/26 11:48:25;;;;;;;9.25;2.55;;;12.90;99.90;;;;;;5000099;28;20073;-35
2022/04/26 11:50:53;;;;;;;4.43;2.28;;;12.90;99.90;;;;;;5018481;28;20045;-35
2022/04/26 11:53:30;;;;;;;7.70;2.30;;;12.90;99.90;;;;;;5017038;28;20044;-36
2022/04/26 11:56:04;;;;;;;7.55;1.98;;;13.00;99.90;;;;;;5017104;28;20417;-36
2022/04/26 11:58:34;;;;;;;7.03;2.33;;;13.00;99.90;;;;;;5001223;28;20057;-35
2022/04/26 12:01:05;;;;;;;4.20;2.03;;;13.00;99.90;;;;;;5016892;28;22125;-35
2022/04/26 12:03:40;;;;;;;5.43;2.30;;;13.10;99.90;;;;;;5013562;28;20415;-36
2022/04/26 12:06:11;;;;;;;4.72;2.45;;;13.10;99.90;;;;;;5018235;28;20048;-36
2022/04/26 12:08:40;;;;;;;4.20;1.90;;;13.10;99.90;;;;;;5010242;28;20041;-36
2022/04/26 12:11:22;;;;;;;6.75;2.63;;;13.20;99.90;;;;;;5020315;28;20511;-36
2022/04/26 12:14:26;;;;;;;5.97;2.47;;;13.20;99.90;;;;;;5023123;28;20427;-36
2022/04/26 12:16:55;;;;;;;6.05;2.22;;;13.20;99.90;;;;;;4984701;28;20041;-36
2022/04/26 12:19:41;;;;;;;3.67;2.40;;;13.20;99.90;;;;;;4997359;28;20095;-36
2022/04/26 12:22:07;;;;;;;3.88;1.90;;;13.20;99.90;;;;;;5008773;28;20292;-36
2022/04/26 12:24:48;;;;;;;5.78;2.35;;;13.20;99.90;;;;;;5021787;28;20373;-36
2022/04/26 12:27:26;;;;;;;5.70;2.30;;;13.30;99.90;;;;;;5007687;28;20049;-35
2022/04/26 12:29:52;;;;;;;5.07;2.58;;;13.20;99.90;;;;;;5023409;28;20060;-36
2022/04/26 12:32:27;;;;;;;5.07;2.30;;;13.20;99.90;;;;;;5022242;28;20102;-35
2022/04/26 12:34:57;;;;;;;4.07;2.05;;;13.30;99.90;;;;;;5021426;28;20079;-35
2022/04/26 12:37:25;;;;;;;7.22;2.35;;;13.30;99.90;;;;;;5011182;28;20049;-35
2022/04/26 12:39:58;;;;;;;4.60;1.95;;;13.40;99.90;;;;;;5023086;28;20056;-36
2022/04/26 12:42:27;;;;;;;5.95;2.33;;;13.40;99.90;;;;;;5023366;28;20065;-36
2022/04/26 12:44:56;;;;;;;7.22;1.98;;;13.40;99.90;;;;;;5020154;28;20556;-36
2022/04/26 12:53:00;;;;;;;3.72;2.00;;;13.50;99.90;;;;;;5018922;28;20528;-36
2022/04/26 12:55:27;;;;;;;5.85;2.17;;;13.50;99.90;;;;;;5022658;28;20395;-35
2022/04/26 12:57:54;;;;;;;6.47;2.35;;;13.50;99.90;;;;;;5004760;28;20859;-36
2022/04/26 13:00:23;;;;;;;4.57;2.47;;;13.50;99.90;;;;;;5022723;28;20095;-36
2022/04/26 13:02:50;;;;;;;5.10;2.00;;;13.50;99.90;;;;;;5018911;28;20062;-36
2022/04/26 13:05:16;;;;;;;5.43;2.40;;;13.50;99.90;;;;;;5021036;28;20127;-36
2022/04/26 13:07:43;;;;;;;7.85;2.30;;;13.60;99.90;;;;;;5006060;28;20056;-36
2022/04/26 13:10:09;;;;;;;5.55;2.53;;;13.60;99.90;;;;;;5022656;28;20047;-36
2022/04/26 13:12:35;;;;;;;6.88;2.63;;;13.60;99.90;;;;;;5020821;28;20045;-36
2022/04/26 13:15:01;;;;;;;6.00;2.75;;;13.70;99.90;;;;;;5023939;28;20495;-35
2022/04/26 13:17:27;;;;;;;4.55;2.45;;;13.80;99.90;;;;;;5008097;28;20045;-36
2022/04/26 13:19:54;;;;;;;4.60;2.10;;;13.90;99.90;;;;;;5022658;28;20068;-36
2022/04/26 13:22:21;;;;;;;5.88;2.17;;;14.00;99.90;;;;;;5017170;28;20639;-36
2022/04/26 13:24:47;;;;;;;7.03;2.20;;;14.10;99.90;;;;;;5017376;28;20049;-35
2022/04/26 13:27:12;;;;;;;4.72;2.28;;;14.20;99.90;;;;;;5005839;28;20068;-36
2022/04/26 13:29:38;;;;;;;5.13;2.00;;;14.20;99.90;;;;;;5020901;28;20411;-36
2022/04/26 13:32:05;;;;;;;5.68;2.15;;;14.30;99.90;;;;;;5016488;28;20177;-36
2022/04/26 13:34:31;;;;;;;8.25;2.20;;;14.30;99.90;;;;;;5021224;28;20571;-36
2022/04/26 13:36:57;;;;;;;3.15;2.00;;;14.30;99.90;;;;;;5004966;28;20110;-36
2022/04/26 13:39:23;;;;;;;3.67;2.30;;;14.30;99.90;;;;;;5021022;28;20053;-36
2022/04/26 13:41:50;;;;;;;4.47;1.83;;;14.30;99.90;;;;;;5019487;28;20060;-36
2022/04/26 13:44:19;;;;;;;6.38;2.15;;;14.20;99.90;;;;;;5020186;28;20506;-36
2022/04/26 13:46:45;;;;;;;5.82;2.03;;;14.20;99.90;;;;;;5006057;28;20053;-37
2022/04/26 13:49:11;;;;;;;7.47;2.38;;;14.10;99.90;;;;;;5020327;28;20075;-36
2022/04/26 13:51:37;;;;;;;8.43;2.63;;;14.10;99.90;;;;;;5019866;28;20081;-36
2022/04/26 13:54:02;;;;;;;6.15;2.38;;;14.10;99.90;;;;;;5015898;28;20135;-36
2022/04/26 13:56:28;;;;;;;6.38;2.50;;;14.10;99.90;;;;;;5010186;28;20049;-36
2022/04/26 13:58:54;;;;;;;6.53;2.30;;;14.10;99.90;;;;;;5015605;28;20067;-35
2022/04/26 14:01:20;;;;;;;8.48;2.20;;;14.10;99.90;;;;;;5020164;28;20045;-36
2022/04/26 14:03:46;;;;;;;8.70;3.13;;;14.20;99.90;;;;;;5019059;28;20152;-37
2022/04/26 14:06:12;;;;;;;3.85;2.05;;;14.10;99.90;;;;;;5014760;28;20382;-36
2022/04/26 14:08:38;;;;;;;3.67;2.22;;;14.10;99.90;;;;;;5012942;28;20048;-36
2022/04/26 14:11:04;;;;;;;7.05;2.33;;;14.10;99.90;;;;;;5021389;28;20543;-36
2022/04/26 14:21:46;;;;;;;6.03;2.40;;;14.00;99.90;;;;;;5022528;28;20416;-36
2022/04/26 14:21:47;;;;;;;6.70;2.45;;;13.90;99.90;;;;;;5017750;28;20099;-35
2022/04/26 14:24:12;;;;;;;7.45;2.13;;;13.80;99.90;;;;;;5017914;28;20045;-36
2022/04/26 14:26:41;;;;;;;6.57;2.47;;;13.80;99.90;;;;;;5003526;28;20107;-36
2022/04/26 14:29:07;;;;;;;4.03;2.00;;;13.90;99.90;;;;;;5016237;28;20048;-36
2022/04/26 14:31:33;;;;;;;5.78;2.22;;;13.90;99.90;;;;;;5020390;28;20135;-36
2022/04/26 14:33:58;;;;;;;3.08;1.63;;;14.00;99.90;;;;;;5015067;28;20284;-36
2022/04/26 14:36:24;;;;;;;4.97;1.88;;;14.00;99.90;;;;;;5003946;28;20080;-36
2022/04/26 14:38:50;;;;;;;5.50;2.42;;;14.10;99.90;;;;;;5009317;28;20496;-36
2022/04/26 14:41:16;;;;;;;4.22;2.10;;;14.10;99.90;;;;;;5019453;28;20147;-36
2022/04/26 14:43:41;;;;;;;6.65;2.10;;;14.10;99.90;;;;;;5016572;28;20144;-36
2022/04/26 14:46:07;;;;;;;4.80;2.20;;;14.10;99.90;;;;;;5013048;28;20086;-37
2022/04/26 14:48:33;;;;;;;5.43;2.10;;;14.20;99.90;;;;;;5007137;28;20144;-36
2022/04/26 14:50:58;;;;;;;6.88;2.33;;;14.20;99.90;;;;;;5015624;28;20056;-36
2022/04/26 14:53:24;;;;;;;6.07;2.05;;;14.10;99.90;;;;;;5011631;28;20053;-35
2022/04/26 14:55:50;;;;;;;6.60;2.40;;;14.10;99.90;;;;;;5017849;28;20049;-36
2022/04/26 14:58:17;;;;;;;5.60;1.80;;;14.10;99.90;;;;;;5003860;28;20080;-36
2022/04/26 15:00:43;;;;;;;5.20;2.30;;;14.10;99.90;;;;;;5021252;28;20053;-36
2022/04/26 15:03:09;;;;;;;7.45;2.08;;;14.00;99.90;;;;;;5017507;28;20049;-36
2022/04/26 15:05:35;;;;;;;5.10;2.55;;;14.00;99.90;;;;;;5022733;28;20415;-36
2022/04/26 15:10:44;;;;;;;5.80;2.35;;;13.90;99.90;;;;;;5019084;28;20478;-36
2022/04/26 15:18:40;;;;;;;5.88;2.05;;;13.80;99.90;;;;;;5011006;28;20055;-36
2022/04/26 15:21:09;;;;;;;6.65;2.53;;;13.70;99.90;;;;;;5018593;28;20399;-36
2022/04/26 15:23:35;;;;;;;4.90;2.25;;;13.80;99.90;;;;;;5003426;28;20045;-36
2022/04/26 15:26:06;;;;;;;7.43;2.40;;;13.70;99.90;;;;;;5015722;28;20068;-36
2022/04/26 15:28:33;;;;;;;5.60;2.35;;;13.70;99.90;;;;;;5006372;28;20078;-36
2022/04/26 15:31:01;;;;;;;3.92;1.95;;;13.70;99.90;;;;;;5017299;28;20045;-36
2022/04/26 15:33:26;;;;;;;6.13;2.08;;;13.60;99.90;;;;;;5015613;28;20254;-36
2022/04/26 15:35:52;;;;;;;6.40;2.20;;;13.60;99.90;;;;;;5020243;28;20090;-36
2022/04/26 15:38:18;;;;;;;7.95;2.47;;;13.60;99.90;;;;;;5002829;28;20522;-36
2022/04/26 15:40:47;;;;;;;4.80;2.10;;;13.50;99.90;;;;;;5021917;28;20844;-36
2022/04/26 15:43:15;;;;;;;5.07;2.40;;;13.40;99.90;;;;;;5016844;28;20444;-36
2022/04/26 15:45:42;;;;;;;5.22;2.05;;;13.50;99.90;;;;;;5017654;28;20053;-36
2022/04/26 15:48:07;;;;;;;5.57;2.50;;;13.40;99.90;;;;;;5006308;28;20156;-36
2022/04/26 15:50:34;;;;;;;5.20;2.33;;;13.30;99.90;;;;;;5023794;28;20040;-36
2022/04/26 15:53:00;;;;;;;4.78;2.33;;;13.30;99.90;;;;;;5022931;28;20491;-36
2022/04/26 15:55:25;;;;;;;5.65;2.25;;;13.20;99.90;;;;;;5021588;28;20278;-36
2022/04/26 15:57:52;;;;;;;4.22;2.08;;;13.20;99.90;;;;;;5005279;28;20110;-36
2022/04/26 16:00:20;;;;;;;4.93;2.15;;;13.20;99.90;;;;;;5023506;28;20322;-36
2022/04/26 16:02:47;;;;;;;5.10;2.35;;;13.10;99.90;;;;;;5019380;28;20068;-36
2022/04/26 16:05:13;;;;;;;6.63;2.35;;;13.10;99.90;;;;;;5019625;28;20496;-36
2022/04/26 16:07:39;;;;;;;4.78;2.60;;;13.00;99.90;;;;;;5006179;28;20516;-36
2022/04/26 16:21:04;;;;;;;5.70;2.13;;;12.80;99.90;;;;;;5018274;28;20573;-35
2022/04/26 16:23:30;;;;;;;4.88;2.38;;;12.70;99.90;;;;;;5017929;28;20167;-36
2022/04/26 16:26:02;;;;;;;7.25;2.90;;;12.60;99.90;;;;;;5017489;28;20129;-36
2022/04/26 16:28:36;;;;;;;7.88;2.40;;;12.60;99.90;;;;;;5001452;28;20809;-35
2022/04/26 16:31:03;;;;;;;6.82;2.33;;;12.50;99.90;;;;;;5017140;28;20040;-36
2022/04/26 16:33:29;;;;;;;5.55;2.53;;;12.50;99.90;;;;;;5016627;28;20131;-36
2022/04/26 16:35:55;;;;;;;5.30;2.40;;;12.40;99.90;;;;;;5019118;28;20501;-35
2022/04/26 16:38:21;;;;;;;5.85;2.28;;;12.30;99.90;;;;;;5003985;28;20048;-35
2022/04/26 16:40:50;;;;;;;7.80;2.38;;;12.20;99.90;;;;;;5018826;28;20605;-36
2022/04/26 16:43:17;;;;;;;4.90;2.15;;;12.20;99.90;;;;;;5017017;28;20813;-35
2022/04/26 16:45:48;;;;;;;5.45;2.00;;;12.10;99.90;;;;;;5020203;28;20432;-36
2022/04/26 16:48:14;;;;;;;;;;;12.10;99.90;;;;;;5004507;28;20051;-36
2022/04/26 16:50:41;;;;;;;7.88;2.30;;;12.00;99.90;;;;;;5017825;28;19920;-35
2022/04/26 16:53:06;;;;;;;5.50;1.95;;;11.90;99.90;;;;;;5018204;28;20072;-36
2022/04/26 16:55:32;;;;;;;5.28;2.38;;;11.80;99.90;;;;;;5022143;28;20166;-35
2022/04/26 16:58:00;;;;;;;7.15;2.15;;;11.80;99.90;;;;;;5004510;28;20218;-36
2022/04/26 17:00:29;;;;;;;12.38;2.40;;;11.70;99.90;;;;;;5022136;28;20396;-35
2022/04/26 17:02:56;;;;;;;13.73;2.33;;;11.70;99.90;;;;;;5017431;28;20059;-35
2022/04/26 17:05:22;;;;;;;5.97;2.30;;;11.60;99.90;;;;;;5017433;28;20300;-36
2022/04/26 17:07:51;;;;;;;5.93;2.30;;;11.60;99.90;;;;;;5005123;28;20053;-35
2022/04/26 17:10:18;;;;;;;8.25;2.50;;;11.60;99.90;;;;;;5022520;28;20045;-35
2022/04/26 17:12:48;;;;;;;6.88;2.50;;;11.50;99.90;;;;;;5017755;28;20092;-35
2022/04/26 17:15:15;;;;;;;7.00;2.97;;;11.40;99.90;;;;;;5020706;28;20354;-36